sensor_id;sensor_type;location;lat;lon;timestamp;P1;durP1;ratioP1;P2;durP2;ratioP2
9773;SDS011;4926;42.670;23.316;2022-10-16T00:01:34;13.18;;;10.45;;
9773;SDS011;4926;42.670;23.316;2022-10-16T00:04:04;14.52;;;12.40;;
9773;SDS011;4926;42.670;23.316;2022-10-16T00:06:31;14.27;;;11.15;;
9773;SDS011;4926;42.670;23.316;2022-10-16T00:08:58;13.18;;;9.40;;
9773;SDS011;4926;42.670;23.316;2022-10-16T00:14:10;11.20;;;8.32;;
9773;SDS011;4926;42.670;23.316;2022-10-16T00:16:38;11.93;;;8.45;;
9773;SDS011;4926;42.670;23.316;2022-10-16T00:19:05;12.63;;;8.80;;
9773;SDS011;4926;42.670;23.316;2022-10-16T00:21:34;11.45;;;7.95;;
9773;SDS011;4926;42.670;23.316;2022-10-16T00:24:02;11.02;;;9.05;;
9773;SDS011;4926;42.670;23.316;2022-10-16T00:26:32;10.50;;;8.55;;
9773;SDS011;4926;42.670;23.316;2022-10-16T00:29:02;13.35;;;9.90;;
9773;SDS011;4926;42.670;23.316;2022-10-16T00:31:29;13.20;;;9.68;;
9773;SDS011;4926;42.670;23.316;2022-10-16T00:33:56;11.35;;;8.38;;
9773;SDS011;4926;42.670;23.316;2022-10-16T00:36:26;10.05;;;8.45;;
9773;SDS011;4926;42.670;23.316;2022-10-16T00:38:53;11.45;;;8.75;;
9773;SDS011;4926;42.670;23.316;2022-10-16T00:41:25;10.35;;;8.45;;
9773;SDS011;4926;42.670;23.316;2022-10-16T00:43:53;11.23;;;8.23;;
9773;SDS011;4926;42.670;23.316;2022-10-16T00:46:26;11.27;;;8.23;;
9773;SDS011;4926;42.670;23.316;2022-10-16T00:48:56;11.60;;;8.48;;
9773;SDS011;4926;42.670;23.316;2022-10-16T00:51:28;11.20;;;8.85;;
9773;SDS011;4926;42.670;23.316;2022-10-16T00:53:58;11.55;;;8.30;;
9773;SDS011;4926;42.670;23.316;2022-10-16T00:56:26;10.50;;;8.65;;
9773;SDS011;4926;42.670;23.316;2022-10-16T00:58:58;13.38;;;8.20;;
9773;SDS011;4926;42.670;23.316;2022-10-16T01:01:30;10.90;;;8.55;;
9773;SDS011;4926;42.670;23.316;2022-10-16T01:03:59;12.07;;;8.88;;
9773;SDS011;4926;42.670;23.316;2022-10-16T01:06:28;10.63;;;8.48;;
9773;SDS011;4926;42.670;23.316;2022-10-16T01:09:06;11.07;;;8.77;;
9773;SDS011;4926;42.670;23.316;2022-10-16T01:11:53;9.75;;;8.05;;
9773;SDS011;4926;42.670;23.316;2022-10-16T01:14:27;9.93;;;8.35;;
9773;SDS011;4926;42.670;23.316;2022-10-16T01:17:03;11.18;;;8.80;;
9773;SDS011;4926;42.670;23.316;2022-10-16T01:19:40;10.20;;;8.50;;
9773;SDS011;4926;42.670;23.316;2022-10-16T01:22:33;12.48;;;8.65;;
9773;SDS011;4926;42.670;23.316;2022-10-16T01:25:05;12.38;;;9.38;;
9773;SDS011;4926;42.670;23.316;2022-10-16T01:27:44;14.23;;;11.23;;
9773;SDS011;4926;42.670;23.316;2022-10-16T01:30:15;26.58;;;20.35;;
9773;SDS011;4926;42.670;23.316;2022-10-16T01:32:48;38.33;;;28.63;;
9773;SDS011;4926;42.670;23.316;2022-10-16T01:35:21;30.73;;;23.60;;
9773;SDS011;4926;42.670;23.316;2022-10-16T01:37:55;23.70;;;17.17;;
9773;SDS011;4926;42.670;23.316;2022-10-16T01:40:28;16.77;;;13.52;;
9773;SDS011;4926;42.670;23.316;2022-10-16T01:43:04;13.63;;;10.95;;
9773;SDS011;4926;42.670;23.316;2022-10-16T01:45:36;14.85;;;11.32;;
9773;SDS011;4926;42.670;23.316;2022-10-16T01:48:13;15.75;;;10.63;;
9773;SDS011;4926;42.670;23.316;2022-10-16T01:50:49;13.93;;;10.07;;
9773;SDS011;4926;42.670;23.316;2022-10-16T01:53:22;12.13;;;9.95;;
9773;SDS011;4926;42.670;23.316;2022-10-16T01:55:51;13.43;;;9.50;;
9773;SDS011;4926;42.670;23.316;2022-10-16T01:58:22;22.85;;;17.60;;
9773;SDS011;4926;42.670;23.316;2022-10-16T02:00:51;24.08;;;16.90;;
9773;SDS011;4926;42.670;23.316;2022-10-16T02:03:23;24.67;;;17.48;;
9773;SDS011;4926;42.670;23.316;2022-10-16T02:05:53;23.92;;;15.95;;
9773;SDS011;4926;42.670;23.316;2022-10-16T02:08:22;18.42;;;12.15;;
9773;SDS011;4926;42.670;23.316;2022-10-16T02:10:54;20.30;;;12.60;;
9773;SDS011;4926;42.670;23.316;2022-10-16T02:13:26;18.33;;;13.93;;
9773;SDS011;4926;42.670;23.316;2022-10-16T02:16:04;18.80;;;14.65;;
9773;SDS011;4926;42.670;23.316;2022-10-16T02:18:31;18.05;;;13.63;;
9773;SDS011;4926;42.670;23.316;2022-10-16T02:21:01;16.50;;;12.40;;
9773;SDS011;4926;42.670;23.316;2022-10-16T02:23:37;18.45;;;12.73;;
9773;SDS011;4926;42.670;23.316;2022-10-16T02:26:16;13.40;;;11.10;;
9773;SDS011;4926;42.670;23.316;2022-10-16T02:28:54;14.95;;;11.20;;
9773;SDS011;4926;42.670;23.316;2022-10-16T02:31:27;15.68;;;11.25;;
9773;SDS011;4926;42.670;23.316;2022-10-16T02:33:59;18.30;;;11.02;;
9773;SDS011;4926;42.670;23.316;2022-10-16T02:36:30;13.65;;;10.32;;
9773;SDS011;4926;42.670;23.316;2022-10-16T02:38:58;12.30;;;9.85;;
9773;SDS011;4926;42.670;23.316;2022-10-16T02:41:26;12.88;;;10.15;;
9773;SDS011;4926;42.670;23.316;2022-10-16T02:43:58;13.23;;;9.98;;
9773;SDS011;4926;42.670;23.316;2022-10-16T02:46:24;14.82;;;9.05;;
9773;SDS011;4926;42.670;23.316;2022-10-16T02:48:56;15.05;;;10.15;;
9773;SDS011;4926;42.670;23.316;2022-10-16T02:51:26;14.75;;;10.55;;
9773;SDS011;4926;42.670;23.316;2022-10-16T02:53:53;13.60;;;10.18;;
9773;SDS011;4926;42.670;23.316;2022-10-16T02:56:19;15.07;;;10.80;;
9773;SDS011;4926;42.670;23.316;2022-10-16T02:58:46;13.07;;;9.98;;
9773;SDS011;4926;42.670;23.316;2022-10-16T03:01:18;14.40;;;9.93;;
9773;SDS011;4926;42.670;23.316;2022-10-16T03:03:45;11.65;;;9.60;;
9773;SDS011;4926;42.670;23.316;2022-10-16T03:06:11;15.25;;;10.45;;
9773;SDS011;4926;42.670;23.316;2022-10-16T03:08:38;17.70;;;12.80;;
9773;SDS011;4926;42.670;23.316;2022-10-16T03:11:08;19.60;;;16.00;;
9773;SDS011;4926;42.670;23.316;2022-10-16T03:13:35;20.75;;;15.18;;
9773;SDS011;4926;42.670;23.316;2022-10-16T03:16:01;17.75;;;14.57;;
9773;SDS011;4926;42.670;23.316;2022-10-16T03:18:31;16.38;;;11.65;;
9773;SDS011;4926;42.670;23.316;2022-10-16T03:20:58;12.65;;;10.32;;
9773;SDS011;4926;42.670;23.316;2022-10-16T03:23:24;13.98;;;9.68;;
9773;SDS011;4926;42.670;23.316;2022-10-16T03:25:51;12.52;;;9.05;;
9773;SDS011;4926;42.670;23.316;2022-10-16T03:28:19;12.57;;;9.55;;
9773;SDS011;4926;42.670;23.316;2022-10-16T03:30:50;15.38;;;11.40;;
9773;SDS011;4926;42.670;23.316;2022-10-16T03:33:16;16.55;;;11.77;;
9773;SDS011;4926;42.670;23.316;2022-10-16T03:35:50;16.80;;;11.88;;
9773;SDS011;4926;42.670;23.316;2022-10-16T03:38:17;16.77;;;12.10;;
9773;SDS011;4926;42.670;23.316;2022-10-16T03:40:44;16.45;;;12.88;;
9773;SDS011;4926;42.670;23.316;2022-10-16T03:43:10;13.57;;;10.43;;
9773;SDS011;4926;42.670;23.316;2022-10-16T03:45:37;12.50;;;9.27;;
9773;SDS011;4926;42.670;23.316;2022-10-16T03:48:05;13.07;;;9.38;;
9773;SDS011;4926;42.670;23.316;2022-10-16T03:50:31;13.55;;;10.50;;
9773;SDS011;4926;42.670;23.316;2022-10-16T03:53:02;13.27;;;11.13;;
9773;SDS011;4926;42.670;23.316;2022-10-16T03:55:35;15.52;;;11.63;;
9773;SDS011;4926;42.670;23.316;2022-10-16T03:58:04;16.38;;;13.15;;
9773;SDS011;4926;42.670;23.316;2022-10-16T04:00:31;20.35;;;15.52;;
9773;SDS011;4926;42.670;23.316;2022-10-16T04:02:58;17.25;;;13.07;;
9773;SDS011;4926;42.670;23.316;2022-10-16T04:05:24;13.05;;;10.55;;
9773;SDS011;4926;42.670;23.316;2022-10-16T04:07:51;13.20;;;9.75;;
9773;SDS011;4926;42.670;23.316;2022-10-16T04:10:19;12.50;;;9.10;;
9773;SDS011;4926;42.670;23.316;2022-10-16T04:12:46;12.32;;;8.73;;
9773;SDS011;4926;42.670;23.316;2022-10-16T04:15:15;12.68;;;9.27;;
9773;SDS011;4926;42.670;23.316;2022-10-16T04:17:42;12.30;;;8.65;;
9773;SDS011;4926;42.670;23.316;2022-10-16T04:20:09;12.95;;;8.48;;
9773;SDS011;4926;42.670;23.316;2022-10-16T04:22:38;10.57;;;8.23;;
9773;SDS011;4926;42.670;23.316;2022-10-16T04:25:05;11.20;;;8.10;;
9773;SDS011;4926;42.670;23.316;2022-10-16T04:27:33;9.98;;;8.10;;
9773;SDS011;4926;42.670;23.316;2022-10-16T04:30:00;10.13;;;7.63;;
9773;SDS011;4926;42.670;23.316;2022-10-16T04:32:27;8.82;;;7.72;;
9773;SDS011;4926;42.670;23.316;2022-10-16T04:34:54;12.27;;;8.93;;
9773;SDS011;4926;42.670;23.316;2022-10-16T04:37:22;10.68;;;8.45;;
9773;SDS011;4926;42.670;23.316;2022-10-16T04:39:50;11.10;;;8.20;;
9773;SDS011;4926;42.670;23.316;2022-10-16T04:42:16;11.20;;;8.40;;
9773;SDS011;4926;42.670;23.316;2022-10-16T04:44:47;12.77;;;8.88;;
9773;SDS011;4926;42.670;23.316;2022-10-16T04:47:17;13.30;;;8.43;;
9773;SDS011;4926;42.670;23.316;2022-10-16T04:49:43;11.55;;;8.75;;
9773;SDS011;4926;42.670;23.316;2022-10-16T04:52:10;12.02;;;8.75;;
9773;SDS011;4926;42.670;23.316;2022-10-16T04:54:40;11.40;;;8.18;;
9773;SDS011;4926;42.670;23.316;2022-10-16T04:57:06;12.80;;;8.30;;
9773;SDS011;4926;42.670;23.316;2022-10-16T04:59:33;11.75;;;8.68;;
9773;SDS011;4926;42.670;23.316;2022-10-16T05:02:01;11.50;;;8.65;;
9773;SDS011;4926;42.670;23.316;2022-10-16T05:04:28;11.18;;;7.78;;
9773;SDS011;4926;42.670;23.316;2022-10-16T05:06:57;10.23;;;7.82;;
9773;SDS011;4926;42.670;23.316;2022-10-16T05:09:26;11.30;;;8.25;;
9773;SDS011;4926;42.670;23.316;2022-10-16T05:11:55;10.57;;;8.05;;
9773;SDS011;4926;42.670;23.316;2022-10-16T05:14:22;10.98;;;8.00;;
9773;SDS011;4926;42.670;23.316;2022-10-16T05:16:52;11.65;;;7.80;;
9773;SDS011;4926;42.670;23.316;2022-10-16T05:19:27;10.48;;;8.07;;
9773;SDS011;4926;42.670;23.316;2022-10-16T05:21:54;12.48;;;7.63;;
9773;SDS011;4926;42.670;23.316;2022-10-16T05:24:21;9.57;;;7.40;;
9773;SDS011;4926;42.670;23.316;2022-10-16T05:26:48;11.75;;;8.63;;
9773;SDS011;4926;42.670;23.316;2022-10-16T05:29:14;13.70;;;9.10;;
9773;SDS011;4926;42.670;23.316;2022-10-16T05:31:44;14.20;;;8.88;;
9773;SDS011;4926;42.670;23.316;2022-10-16T05:34:11;12.18;;;8.98;;
9773;SDS011;4926;42.670;23.316;2022-10-16T05:36:39;12.55;;;9.75;;
9773;SDS011;4926;42.670;23.316;2022-10-16T05:39:05;10.95;;;9.02;;
9773;SDS011;4926;42.670;23.316;2022-10-16T05:41:35;12.10;;;9.32;;
9773;SDS011;4926;42.670;23.316;2022-10-16T05:44:03;11.05;;;8.63;;
9773;SDS011;4926;42.670;23.316;2022-10-16T05:46:31;14.05;;;8.65;;
9773;SDS011;4926;42.670;23.316;2022-10-16T05:48:57;11.48;;;9.15;;
9773;SDS011;4926;42.670;23.316;2022-10-16T05:51:24;11.95;;;8.65;;
9773;SDS011;4926;42.670;23.316;2022-10-16T05:53:55;10.90;;;8.52;;
9773;SDS011;4926;42.670;23.316;2022-10-16T05:56:21;10.48;;;7.95;;
9773;SDS011;4926;42.670;23.316;2022-10-16T05:58:51;10.55;;;8.48;;
9773;SDS011;4926;42.670;23.316;2022-10-16T06:01:18;9.50;;;8.15;;
9773;SDS011;4926;42.670;23.316;2022-10-16T06:03:49;13.60;;;9.02;;
9773;SDS011;4926;42.670;23.316;2022-10-16T06:06:19;16.83;;;12.13;;
9773;SDS011;4926;42.670;23.316;2022-10-16T06:08:48;11.65;;;9.15;;
9773;SDS011;4926;42.670;23.316;2022-10-16T06:11:17;9.82;;;8.25;;
9773;SDS011;4926;42.670;23.316;2022-10-16T06:13:48;13.95;;;9.38;;
9773;SDS011;4926;42.670;23.316;2022-10-16T06:16:15;12.15;;;8.75;;
9773;SDS011;4926;42.670;23.316;2022-10-16T06:18:42;10.75;;;8.32;;
9773;SDS011;4926;42.670;23.316;2022-10-16T06:21:10;9.55;;;7.80;;
9773;SDS011;4926;42.670;23.316;2022-10-16T06:23:38;9.10;;;7.88;;
9773;SDS011;4926;42.670;23.316;2022-10-16T06:26:05;9.05;;;7.38;;
9773;SDS011;4926;42.670;23.316;2022-10-16T06:28:37;8.45;;;7.43;;
9773;SDS011;4926;42.670;23.316;2022-10-16T06:31:06;9.23;;;7.35;;
9773;SDS011;4926;42.670;23.316;2022-10-16T06:33:34;11.15;;;7.55;;
9773;SDS011;4926;42.670;23.316;2022-10-16T06:36:01;13.82;;;6.95;;
9773;SDS011;4926;42.670;23.316;2022-10-16T06:38:28;9.40;;;7.35;;
9773;SDS011;4926;42.670;23.316;2022-10-16T06:40:55;10.38;;;7.10;;
9773;SDS011;4926;42.670;23.316;2022-10-16T06:43:22;12.18;;;8.13;;
9773;SDS011;4926;42.670;23.316;2022-10-16T06:45:53;10.25;;;7.63;;
9773;SDS011;4926;42.670;23.316;2022-10-16T06:48:23;10.85;;;7.65;;
9773;SDS011;4926;42.670;23.316;2022-10-16T06:50:57;11.52;;;7.90;;
9773;SDS011;4926;42.670;23.316;2022-10-16T06:53:25;9.68;;;7.18;;
9773;SDS011;4926;42.670;23.316;2022-10-16T06:55:53;12.55;;;6.40;;
9773;SDS011;4926;42.670;23.316;2022-10-16T06:58:20;9.85;;;7.95;;
9773;SDS011;4926;42.670;23.316;2022-10-16T07:00:47;9.95;;;8.52;;
9773;SDS011;4926;42.670;23.316;2022-10-16T07:03:15;11.38;;;8.63;;
9773;SDS011;4926;42.670;23.316;2022-10-16T07:05:42;12.32;;;8.15;;
9773;SDS011;4926;42.670;23.316;2022-10-16T07:08:09;12.05;;;8.73;;
9773;SDS011;4926;42.670;23.316;2022-10-16T07:10:36;10.73;;;8.48;;
9773;SDS011;4926;42.670;23.316;2022-10-16T07:13:03;12.57;;;8.77;;
9773;SDS011;4926;42.670;23.316;2022-10-16T07:15:29;12.30;;;8.55;;
9773;SDS011;4926;42.670;23.316;2022-10-16T07:17:56;15.05;;;8.43;;
9773;SDS011;4926;42.670;23.316;2022-10-16T07:20:24;9.30;;;8.30;;
9773;SDS011;4926;42.670;23.316;2022-10-16T07:22:51;9.00;;;8.02;;
9773;SDS011;4926;42.670;23.316;2022-10-16T07:25:18;11.75;;;8.60;;
9773;SDS011;4926;42.670;23.316;2022-10-16T07:27:47;10.35;;;8.50;;
9773;SDS011;4926;42.670;23.316;2022-10-16T07:30:15;13.38;;;8.85;;
9773;SDS011;4926;42.670;23.316;2022-10-16T07:32:42;11.48;;;8.68;;
9773;SDS011;4926;42.670;23.316;2022-10-16T07:35:11;9.95;;;8.40;;
9773;SDS011;4926;42.670;23.316;2022-10-16T07:37:39;11.45;;;9.93;;
9773;SDS011;4926;42.670;23.316;2022-10-16T07:40:13;14.73;;;9.02;;
9773;SDS011;4926;42.670;23.316;2022-10-16T07:42:42;11.77;;;8.48;;
9773;SDS011;4926;42.670;23.316;2022-10-16T07:45:09;10.85;;;8.82;;
9773;SDS011;4926;42.670;23.316;2022-10-16T07:47:38;10.40;;;8.45;;
9773;SDS011;4926;42.670;23.316;2022-10-16T07:50:04;12.40;;;10.25;;
9773;SDS011;4926;42.670;23.316;2022-10-16T07:52:31;10.52;;;9.43;;
9773;SDS011;4926;42.670;23.316;2022-10-16T07:55:00;11.88;;;8.55;;
9773;SDS011;4926;42.670;23.316;2022-10-16T07:57:29;8.77;;;7.00;;
9773;SDS011;4926;42.670;23.316;2022-10-16T07:59:55;8.27;;;7.40;;
9773;SDS011;4926;42.670;23.316;2022-10-16T08:02:24;10.68;;;8.43;;
9773;SDS011;4926;42.670;23.316;2022-10-16T08:04:51;8.75;;;7.25;;
9773;SDS011;4926;42.670;23.316;2022-10-16T08:07:18;9.75;;;6.90;;
9773;SDS011;4926;42.670;23.316;2022-10-16T08:09:44;9.85;;;6.55;;
9773;SDS011;4926;42.670;23.316;2022-10-16T08:12:19;6.57;;;5.85;;
9773;SDS011;4926;42.670;23.316;2022-10-16T08:14:48;7.45;;;5.50;;
9773;SDS011;4926;42.670;23.316;2022-10-16T08:17:15;6.45;;;5.43;;
9773;SDS011;4926;42.670;23.316;2022-10-16T08:19:44;6.53;;;5.50;;
9773;SDS011;4926;42.670;23.316;2022-10-16T08:22:11;7.07;;;5.15;;
9773;SDS011;4926;42.670;23.316;2022-10-16T08:24:41;6.85;;;5.57;;
9773;SDS011;4926;42.670;23.316;2022-10-16T08:27:08;7.47;;;5.28;;
9773;SDS011;4926;42.670;23.316;2022-10-16T08:29:36;6.43;;;5.63;;
9773;SDS011;4926;42.670;23.316;2022-10-16T08:32:03;5.78;;;4.93;;
9773;SDS011;4926;42.670;23.316;2022-10-16T08:34:30;6.30;;;5.30;;
9773;SDS011;4926;42.670;23.316;2022-10-16T08:36:57;6.43;;;5.22;;
9773;SDS011;4926;42.670;23.316;2022-10-16T08:39:24;5.45;;;4.88;;
9773;SDS011;4926;42.670;23.316;2022-10-16T08:42:00;8.57;;;4.85;;
9773;SDS011;4926;42.670;23.316;2022-10-16T08:44:56;5.90;;;4.97;;
9773;SDS011;4926;42.670;23.316;2022-10-16T08:47:48;5.32;;;4.53;;
9773;SDS011;4926;42.670;23.316;2022-10-16T08:50:22;5.22;;;4.72;;
9773;SDS011;4926;42.670;23.316;2022-10-16T08:52:54;6.75;;;4.90;;
9773;SDS011;4926;42.670;23.316;2022-10-16T08:55:29;5.03;;;4.50;;
9773;SDS011;4926;42.670;23.316;2022-10-16T08:58:00;5.68;;;4.38;;
9773;SDS011;4926;42.670;23.316;2022-10-16T09:00:28;4.40;;;4.00;;
9773;SDS011;4926;42.670;23.316;2022-10-16T09:03:03;5.60;;;4.10;;
9773;SDS011;4926;42.670;23.316;2022-10-16T09:05:49;4.65;;;3.22;;
9773;SDS011;4926;42.670;23.316;2022-10-16T09:08:30;4.13;;;3.67;;
9773;SDS011;4926;42.670;23.316;2022-10-16T09:11:11;7.63;;;3.80;;
9773;SDS011;4926;42.670;23.316;2022-10-16T09:13:46;3.55;;;3.25;;
9773;SDS011;4926;42.670;23.316;2022-10-16T09:16:27;4.65;;;3.65;;
9773;SDS011;4926;42.670;23.316;2022-10-16T09:19:00;5.80;;;3.40;;
9773;SDS011;4926;42.670;23.316;2022-10-16T09:21:41;6.00;;;4.10;;
9773;SDS011;4926;42.670;23.316;2022-10-16T09:24:11;4.15;;;3.53;;
9773;SDS011;4926;42.670;23.316;2022-10-16T09:26:40;3.80;;;3.28;;
9773;SDS011;4926;42.670;23.316;2022-10-16T09:29:08;5.38;;;3.75;;
9773;SDS011;4926;42.670;23.316;2022-10-16T09:31:39;7.07;;;5.43;;
9773;SDS011;4926;42.670;23.316;2022-10-16T09:34:06;6.28;;;3.38;;
9773;SDS011;4926;42.670;23.316;2022-10-16T09:36:44;4.15;;;3.40;;
9773;SDS011;4926;42.670;23.316;2022-10-16T09:39:12;4.72;;;3.88;;
9773;SDS011;4926;42.670;23.316;2022-10-16T09:41:39;4.18;;;3.65;;
9773;SDS011;4926;42.670;23.316;2022-10-16T09:44:18;6.15;;;3.13;;
9773;SDS011;4926;42.670;23.316;2022-10-16T09:47:00;3.83;;;3.20;;
9773;SDS011;4926;42.670;23.316;2022-10-16T09:49:27;4.80;;;3.13;;
9773;SDS011;4926;42.670;23.316;2022-10-16T09:52:02;4.28;;;2.97;;
9773;SDS011;4926;42.670;23.316;2022-10-16T09:54:30;6.57;;;3.30;;
9773;SDS011;4926;42.670;23.316;2022-10-16T09:57:03;3.90;;;2.95;;
9773;SDS011;4926;42.670;23.316;2022-10-16T09:59:31;4.85;;;3.38;;
9773;SDS011;4926;42.670;23.316;2022-10-16T10:02:04;6.70;;;4.50;;
9773;SDS011;4926;42.670;23.316;2022-10-16T10:04:40;7.60;;;4.18;;
9773;SDS011;4926;42.670;23.316;2022-10-16T10:07:16;3.80;;;3.38;;
9773;SDS011;4926;42.670;23.316;2022-10-16T10:09:45;2.80;;;2.50;;
9773;SDS011;4926;42.670;23.316;2022-10-16T10:12:19;4.20;;;3.20;;
9773;SDS011;4926;42.670;23.316;2022-10-16T10:14:50;3.03;;;2.80;;
9773;SDS011;4926;42.670;23.316;2022-10-16T10:17:20;4.53;;;2.75;;
9773;SDS011;4926;42.670;23.316;2022-10-16T10:19:49;3.72;;;3.00;;
9773;SDS011;4926;42.670;23.316;2022-10-16T10:22:27;3.15;;;2.85;;
9773;SDS011;4926;42.670;23.316;2022-10-16T10:24:59;4.05;;;3.22;;
9773;SDS011;4926;42.670;23.316;2022-10-16T10:27:36;3.38;;;3.00;;
9773;SDS011;4926;42.670;23.316;2022-10-16T10:30:15;3.05;;;2.70;;
9773;SDS011;4926;42.670;23.316;2022-10-16T10:32:50;3.92;;;3.03;;
9773;SDS011;4926;42.670;23.316;2022-10-16T10:35:31;3.92;;;2.70;;
9773;SDS011;4926;42.670;23.316;2022-10-16T10:38:06;5.15;;;3.58;;
9773;SDS011;4926;42.670;23.316;2022-10-16T10:40:48;5.43;;;4.88;;
9773;SDS011;4926;42.670;23.316;2022-10-16T10:43:25;3.83;;;3.42;;
9773;SDS011;4926;42.670;23.316;2022-10-16T10:46:07;4.78;;;2.90;;
9773;SDS011;4926;42.670;23.316;2022-10-16T10:48:45;4.70;;;2.95;;
9773;SDS011;4926;42.670;23.316;2022-10-16T10:51:21;3.50;;;2.90;;
9773;SDS011;4926;42.670;23.316;2022-10-16T10:53:56;4.35;;;3.20;;
9773;SDS011;4926;42.670;23.316;2022-10-16T10:56:41;4.85;;;2.97;;
9773;SDS011;4926;42.670;23.316;2022-10-16T10:59:30;3.72;;;3.05;;
9773;SDS011;4926;42.670;23.316;2022-10-16T11:02:04;4.30;;;3.17;;
9773;SDS011;4926;42.670;23.316;2022-10-16T11:07:32;4.53;;;2.50;;
9773;SDS011;4926;42.670;23.316;2022-10-16T11:10:09;4.22;;;2.45;;
9773;SDS011;4926;42.670;23.316;2022-10-16T11:12:42;3.00;;;2.60;;
9773;SDS011;4926;42.670;23.316;2022-10-16T11:15:14;3.17;;;2.88;;
9773;SDS011;4926;42.670;23.316;2022-10-16T11:17:45;5.65;;;3.38;;
9773;SDS011;4926;42.670;23.316;2022-10-16T11:20:19;4.70;;;3.28;;
9773;SDS011;4926;42.670;23.316;2022-10-16T11:22:50;4.95;;;3.50;;
9773;SDS011;4926;42.670;23.316;2022-10-16T11:25:21;5.28;;;3.10;;
9773;SDS011;4926;42.670;23.316;2022-10-16T11:27:51;3.70;;;2.80;;
9773;SDS011;4926;42.670;23.316;2022-10-16T11:30:25;3.65;;;2.67;;
9773;SDS011;4926;42.670;23.316;2022-10-16T11:32:58;3.50;;;2.63;;
9773;SDS011;4926;42.670;23.316;2022-10-16T11:35:35;2.97;;;2.78;;
9773;SDS011;4926;42.670;23.316;2022-10-16T11:38:10;2.28;;;2.08;;
9773;SDS011;4926;42.670;23.316;2022-10-16T11:40:43;2.67;;;2.47;;
9773;SDS011;4926;42.670;23.316;2022-10-16T11:43:20;2.80;;;2.28;;
9773;SDS011;4926;42.670;23.316;2022-10-16T11:45:51;4.38;;;2.72;;
9773;SDS011;4926;42.670;23.316;2022-10-16T11:48:23;3.80;;;3.10;;
9773;SDS011;4926;42.670;23.316;2022-10-16T11:51:00;5.82;;;3.35;;
9773;SDS011;4926;42.670;23.316;2022-10-16T11:53:42;3.85;;;3.33;;
9773;SDS011;4926;42.670;23.316;2022-10-16T11:56:13;3.25;;;2.95;;
9773;SDS011;4926;42.670;23.316;2022-10-16T11:58:50;3.83;;;3.13;;
9773;SDS011;4926;42.670;23.316;2022-10-16T12:01:22;3.63;;;2.97;;
9773;SDS011;4926;42.670;23.316;2022-10-16T12:04:13;4.00;;;2.75;;
9773;SDS011;4926;42.670;23.316;2022-10-16T12:06:47;2.90;;;2.60;;
9773;SDS011;4926;42.670;23.316;2022-10-16T12:09:22;3.25;;;2.80;;
9773;SDS011;4926;42.670;23.316;2022-10-16T12:11:52;5.75;;;3.45;;
9773;SDS011;4926;42.670;23.316;2022-10-16T12:14:21;4.53;;;3.08;;
9773;SDS011;4926;42.670;23.316;2022-10-16T12:17:01;6.03;;;2.95;;
9773;SDS011;4926;42.670;23.316;2022-10-16T12:19:30;4.50;;;2.80;;
9773;SDS011;4926;42.670;23.316;2022-10-16T12:22:02;3.58;;;2.75;;
9773;SDS011;4926;42.670;23.316;2022-10-16T12:24:32;4.40;;;3.03;;
9773;SDS011;4926;42.670;23.316;2022-10-16T12:27:02;3.70;;;2.63;;
9773;SDS011;4926;42.670;23.316;2022-10-16T12:29:32;3.28;;;2.90;;
9773;SDS011;4926;42.670;23.316;2022-10-16T12:32:02;6.78;;;3.55;;
9773;SDS011;4926;42.670;23.316;2022-10-16T12:34:33;3.08;;;2.30;;
9773;SDS011;4926;42.670;23.316;2022-10-16T12:37:10;3.45;;;2.70;;
9773;SDS011;4926;42.670;23.316;2022-10-16T12:39:41;3.95;;;3.25;;
9773;SDS011;4926;42.670;23.316;2022-10-16T12:42:19;3.70;;;3.22;;
9773;SDS011;4926;42.670;23.316;2022-10-16T12:44:58;5.72;;;3.22;;
9773;SDS011;4926;42.670;23.316;2022-10-16T12:47:35;20.25;;;11.95;;
9773;SDS011;4926;42.670;23.316;2022-10-16T12:50:21;4.07;;;3.00;;
9773;SDS011;4926;42.670;23.316;2022-10-16T12:52:52;4.57;;;2.85;;
9773;SDS011;4926;42.670;23.316;2022-10-16T12:55:20;3.72;;;3.00;;
9773;SDS011;4926;42.670;23.316;2022-10-16T12:57:56;3.67;;;3.00;;
9773;SDS011;4926;42.670;23.316;2022-10-16T13:00:36;3.58;;;2.72;;
9773;SDS011;4926;42.670;23.316;2022-10-16T13:03:26;3.85;;;3.30;;
9773;SDS011;4926;42.670;23.316;2022-10-16T13:06:27;6.32;;;3.50;;
9773;SDS011;4926;42.670;23.316;2022-10-16T13:09:07;3.60;;;2.85;;
9773;SDS011;4926;42.670;23.316;2022-10-16T13:11:52;4.00;;;3.00;;
9773;SDS011;4926;42.670;23.316;2022-10-16T13:14:41;3.05;;;2.67;;
9773;SDS011;4926;42.670;23.316;2022-10-16T13:17:30;3.33;;;3.03;;
9773;SDS011;4926;42.670;23.316;2022-10-16T13:20:06;5.50;;;2.88;;
9773;SDS011;4926;42.670;23.316;2022-10-16T13:22:45;3.50;;;2.72;;
9773;SDS011;4926;42.670;23.316;2022-10-16T13:25:23;4.53;;;2.90;;
9773;SDS011;4926;42.670;23.316;2022-10-16T13:28:07;2.90;;;2.55;;
9773;SDS011;4926;42.670;23.316;2022-10-16T13:30:39;3.05;;;2.67;;
9773;SDS011;4926;42.670;23.316;2022-10-16T13:33:12;2.70;;;2.33;;
9773;SDS011;4926;42.670;23.316;2022-10-16T13:35:46;2.70;;;2.50;;
9773;SDS011;4926;42.670;23.316;2022-10-16T13:38:15;3.92;;;2.22;;
9773;SDS011;4926;42.670;23.316;2022-10-16T13:40:52;3.63;;;2.70;;
9773;SDS011;4926;42.670;23.316;2022-10-16T13:43:23;4.03;;;2.95;;
9773;SDS011;4926;42.670;23.316;2022-10-16T13:45:59;2.67;;;2.40;;
9773;SDS011;4926;42.670;23.316;2022-10-16T13:48:28;4.32;;;2.35;;
9773;SDS011;4926;42.670;23.316;2022-10-16T13:51:02;4.05;;;2.58;;
9773;SDS011;4926;42.670;23.316;2022-10-16T13:53:31;5.18;;;2.60;;
9773;SDS011;4926;42.670;23.316;2022-10-16T13:56:00;6.22;;;3.28;;
9773;SDS011;4926;42.670;23.316;2022-10-16T13:58:29;3.92;;;2.85;;
9773;SDS011;4926;42.670;23.316;2022-10-16T14:00:56;6.85;;;2.90;;
9773;SDS011;4926;42.670;23.316;2022-10-16T14:03:25;3.60;;;2.67;;
9773;SDS011;4926;42.670;23.316;2022-10-16T14:05:56;4.38;;;3.13;;
9773;SDS011;4926;42.670;23.316;2022-10-16T14:08:26;3.78;;;2.72;;
9773;SDS011;4926;42.670;23.316;2022-10-16T14:10:55;4.65;;;2.60;;
9773;SDS011;4926;42.670;23.316;2022-10-16T14:13:28;3.22;;;2.72;;
9773;SDS011;4926;42.670;23.316;2022-10-16T14:15:57;5.60;;;2.88;;
9773;SDS011;4926;42.670;23.316;2022-10-16T14:18:28;3.83;;;2.58;;
9773;SDS011;4926;42.670;23.316;2022-10-16T14:20:55;3.10;;;2.75;;
9773;SDS011;4926;42.670;23.316;2022-10-16T14:23:30;7.65;;;2.97;;
9773;SDS011;4926;42.670;23.316;2022-10-16T14:26:05;4.50;;;2.40;;
9773;SDS011;4926;42.670;23.316;2022-10-16T14:28:44;2.40;;;2.20;;
9773;SDS011;4926;42.670;23.316;2022-10-16T14:31:22;4.13;;;2.40;;
9773;SDS011;4926;42.670;23.316;2022-10-16T14:33:52;4.38;;;2.22;;
9773;SDS011;4926;42.670;23.316;2022-10-16T14:36:25;5.75;;;2.50;;
9773;SDS011;4926;42.670;23.316;2022-10-16T14:39:00;4.15;;;2.60;;
9773;SDS011;4926;42.670;23.316;2022-10-16T14:41:29;3.17;;;2.60;;
9773;SDS011;4926;42.670;23.316;2022-10-16T14:44:02;5.10;;;2.53;;
9773;SDS011;4926;42.670;23.316;2022-10-16T14:46:31;3.63;;;2.70;;
9773;SDS011;4926;42.670;23.316;2022-10-16T14:49:02;4.68;;;2.80;;
9773;SDS011;4926;42.670;23.316;2022-10-16T14:51:39;3.03;;;2.33;;
9773;SDS011;4926;42.670;23.316;2022-10-16T14:54:10;3.72;;;2.40;;
9773;SDS011;4926;42.670;23.316;2022-10-16T14:56:47;7.00;;;3.10;;
9773;SDS011;4926;42.670;23.316;2022-10-16T14:59:18;3.20;;;2.60;;
9773;SDS011;4926;42.670;23.316;2022-10-16T15:01:48;2.50;;;2.30;;
9773;SDS011;4926;42.670;23.316;2022-10-16T15:04:15;5.07;;;2.35;;
9773;SDS011;4926;42.670;23.316;2022-10-16T15:06:43;2.78;;;2.22;;
9773;SDS011;4926;42.670;23.316;2022-10-16T15:09:10;4.78;;;2.70;;
9773;SDS011;4926;42.670;23.316;2022-10-16T15:11:39;2.97;;;2.40;;
9773;SDS011;4926;42.670;23.316;2022-10-16T15:14:08;4.28;;;2.88;;
9773;SDS011;4926;42.670;23.316;2022-10-16T15:16:38;12.30;;;3.10;;
9773;SDS011;4926;42.670;23.316;2022-10-16T15:19:07;3.63;;;2.50;;
9773;SDS011;4926;42.670;23.316;2022-10-16T15:21:36;2.88;;;2.50;;
9773;SDS011;4926;42.670;23.316;2022-10-16T15:24:08;3.90;;;3.50;;